sensor_id;sensor_type;location;lat;lon;timestamp;P1;durP1;ratioP1;P2;durP2;ratioP2
61391;SDS011;47261;52.892;5.738;2024-02-15T00:01:00;14.32;;;3.92;;
61391;SDS011;47261;52.892;5.738;2024-02-15T00:03:26;13.97;;;3.90;;
61391;SDS011;47261;52.892;5.738;2024-02-15T00:05:52;11.65;;;3.03;;
61391;SDS011;47261;52.892;5.738;2024-02-15T00:08:17;10.90;;;2.77;;
61391;SDS011;47261;52.892;5.738;2024-02-15T00:10:45;14.93;;;2.90;;
61391;SDS011;47261;52.892;5.738;2024-02-15T00:13:11;9.13;;;2.83;;
61391;SDS011;47261;52.892;5.738;2024-02-15T00:15:37;11.90;;;2.85;;
61391;SDS011;47261;52.892;5.738;2024-02-15T00:18:03;13.97;;;3.20;;
61391;SDS011;47261;52.892;5.738;2024-02-15T00:20:29;7.95;;;2.00;;
61391;SDS011;47261;52.892;5.738;2024-02-15T00:22:55;10.85;;;2.55;;
61391;SDS011;47261;52.892;5.738;2024-02-15T00:25:21;11.67;;;3.13;;
61391;SDS011;47261;52.892;5.738;2024-02-15T00:27:46;8.75;;;2.22;;
61391;SDS011;47261;52.892;5.738;2024-02-15T00:30:12;12.77;;;2.20;;
61391;SDS011;47261;52.892;5.738;2024-02-15T00:32:38;16.33;;;2.53;;
61391;SDS011;47261;52.892;5.738;2024-02-15T00:35:04;11.95;;;2.00;;
61391;SDS011;47261;52.892;5.738;2024-02-15T00:37:34;13.82;;;2.65;;
61391;SDS011;47261;52.892;5.738;2024-02-15T00:40:00;12.63;;;2.80;;
61391;SDS011;47261;52.892;5.738;2024-02-15T00:42:29;10.70;;;2.63;;
61391;SDS011;47261;52.892;5.738;2024-02-15T00:44:57;13.90;;;2.78;;
61391;SDS011;47261;52.892;5.738;2024-02-15T00:47:23;12.40;;;2.10;;
61391;SDS011;47261;52.892;5.738;2024-02-15T00:49:49;10.95;;;1.90;;
61391;SDS011;47261;52.892;5.738;2024-02-15T00:52:15;13.50;;;2.97;;
61391;SDS011;47261;52.892;5.738;2024-02-15T00:54:44;10.07;;;2.23;;
61391;SDS011;47261;52.892;5.738;2024-02-15T00:57:09;11.75;;;2.17;;
61391;SDS011;47261;52.892;5.738;2024-02-15T00:59:35;6.72;;;1.77;;
61391;SDS011;47261;52.892;5.738;2024-02-15T01:02:01;11.33;;;2.20;;
61391;SDS011;47261;52.892;5.738;2024-02-15T01:04:27;13.70;;;1.75;;
61391;SDS011;47261;52.892;5.738;2024-02-15T01:06:53;10.13;;;2.13;;
61391;SDS011;47261;52.892;5.738;2024-02-15T01:09:19;20.30;;;2.97;;
61391;SDS011;47261;52.892;5.738;2024-02-15T01:11:45;16.77;;;2.67;;
61391;SDS011;47261;52.892;5.738;2024-02-15T01:14:11;12.20;;;2.42;;
61391;SDS011;47261;52.892;5.738;2024-02-15T01:16:36;14.57;;;2.20;;
61391;SDS011;47261;52.892;5.738;2024-02-15T01:19:02;10.03;;;2.10;;
61391;SDS011;47261;52.892;5.738;2024-02-15T01:21:28;6.90;;;2.00;;
61391;SDS011;47261;52.892;5.738;2024-02-15T01:23:54;14.38;;;2.13;;
61391;SDS011;47261;52.892;5.738;2024-02-15T01:26:20;12.97;;;1.63;;
61391;SDS011;47261;52.892;5.738;2024-02-15T01:28:46;7.57;;;2.15;;
61391;SDS011;47261;52.892;5.738;2024-02-15T01:31:11;10.13;;;1.73;;
61391;SDS011;47261;52.892;5.738;2024-02-15T01:33:37;10.15;;;1.83;;
61391;SDS011;47261;52.892;5.738;2024-02-15T01:36:03;10.70;;;1.90;;
61391;SDS011;47261;52.892;5.738;2024-02-15T01:38:29;10.87;;;2.13;;
61391;SDS011;47261;52.892;5.738;2024-02-15T01:40:55;7.75;;;1.80;;
61391;SDS011;47261;52.892;5.738;2024-02-15T01:43:21;12.43;;;1.97;;
61391;SDS011;47261;52.892;5.738;2024-02-15T01:45:46;12.30;;;2.37;;
61391;SDS011;47261;52.892;5.738;2024-02-15T01:48:14;15.03;;;1.77;;
61391;SDS011;47261;52.892;5.738;2024-02-15T01:50:40;10.10;;;2.08;;
61391;SDS011;47261;52.892;5.738;2024-02-15T01:53:08;16.80;;;2.65;;
61391;SDS011;47261;52.892;5.738;2024-02-15T01:55:35;11.75;;;2.45;;
61391;SDS011;47261;52.892;5.738;2024-02-15T01:58:02;12.15;;;2.65;;
61391;SDS011;47261;52.892;5.738;2024-02-15T02:00:29;11.03;;;2.23;;
61391;SDS011;47261;52.892;5.738;2024-02-15T02:02:56;23.08;;;4.80;;
61391;SDS011;47261;52.892;5.738;2024-02-15T02:05:29;8.90;;;2.10;;
61391;SDS011;47261;52.892;5.738;2024-02-15T02:07:56;13.68;;;2.70;;
61391;SDS011;47261;52.892;5.738;2024-02-15T02:10:26;23.92;;;4.38;;
61391;SDS011;47261;52.892;5.738;2024-02-15T02:12:52;18.97;;;4.33;;
61391;SDS011;47261;52.892;5.738;2024-02-15T02:15:18;15.05;;;3.25;;
61391;SDS011;47261;52.892;5.738;2024-02-15T02:17:48;25.92;;;3.85;;
61391;SDS011;47261;52.892;5.738;2024-02-15T02:20:16;18.42;;;2.75;;
61391;SDS011;47261;52.892;5.738;2024-02-15T02:22:41;17.07;;;2.93;;
61391;SDS011;47261;52.892;5.738;2024-02-15T02:25:11;23.17;;;3.35;;
61391;SDS011;47261;52.892;5.738;2024-02-15T02:27:38;12.85;;;2.40;;
61391;SDS011;47261;52.892;5.738;2024-02-15T02:30:04;12.63;;;2.97;;
61391;SDS011;47261;52.892;5.738;2024-02-15T02:32:39;11.20;;;2.50;;
61391;SDS011;47261;52.892;5.738;2024-02-15T02:35:08;8.73;;;3.10;;
61391;SDS011;47261;52.892;5.738;2024-02-15T02:37:37;15.82;;;4.25;;
61391;SDS011;47261;52.892;5.738;2024-02-15T02:40:05;18.05;;;4.53;;
61391;SDS011;47261;52.892;5.738;2024-02-15T02:42:50;9.65;;;2.50;;
61391;SDS011;47261;52.892;5.738;2024-02-15T02:45:21;16.40;;;3.10;;
61391;SDS011;47261;52.892;5.738;2024-02-15T02:47:47;13.45;;;3.08;;
61391;SDS011;47261;52.892;5.738;2024-02-15T02:50:13;9.45;;;2.65;;
61391;SDS011;47261;52.892;5.738;2024-02-15T02:52:39;16.50;;;3.97;;
61391;SDS011;47261;52.892;5.738;2024-02-15T02:55:05;19.57;;;5.30;;
61391;SDS011;47261;52.892;5.738;2024-02-15T02:57:37;16.35;;;4.95;;
61391;SDS011;47261;52.892;5.738;2024-02-15T03:00:06;12.40;;;4.05;;
61391;SDS011;47261;52.892;5.738;2024-02-15T03:02:36;15.80;;;4.55;;
61391;SDS011;47261;52.892;5.738;2024-02-15T03:05:03;20.75;;;6.82;;
61391;SDS011;47261;52.892;5.738;2024-02-15T03:07:32;25.30;;;6.53;;
61391;SDS011;47261;52.892;5.738;2024-02-15T03:09:58;30.23;;;7.10;;
61391;SDS011;47261;52.892;5.738;2024-02-15T03:12:24;19.52;;;5.88;;
61391;SDS011;47261;52.892;5.738;2024-02-15T03:14:51;23.87;;;6.70;;
61391;SDS011;47261;52.892;5.738;2024-02-15T03:17:17;26.70;;;7.60;;
61391;SDS011;47261;52.892;5.738;2024-02-15T03:19:43;31.23;;;6.70;;
61391;SDS011;47261;52.892;5.738;2024-02-15T03:22:08;31.20;;;9.57;;
61391;SDS011;47261;52.892;5.738;2024-02-15T03:24:34;26.23;;;8.93;;
61391;SDS011;47261;52.892;5.738;2024-02-15T03:27:00;20.80;;;7.57;;
61391;SDS011;47261;52.892;5.738;2024-02-15T03:29:26;22.63;;;8.00;;
61391;SDS011;47261;52.892;5.738;2024-02-15T03:31:51;32.23;;;9.27;;
61391;SDS011;47261;52.892;5.738;2024-02-15T03:34:18;24.75;;;7.90;;
61391;SDS011;47261;52.892;5.738;2024-02-15T03:36:46;25.50;;;9.05;;
61391;SDS011;47261;52.892;5.738;2024-02-15T03:39:18;26.27;;;8.03;;
61391;SDS011;47261;52.892;5.738;2024-02-15T03:41:44;25.05;;;7.10;;
61391;SDS011;47261;52.892;5.738;2024-02-15T03:44:11;21.13;;;7.13;;
61391;SDS011;47261;52.892;5.738;2024-02-15T03:46:37;17.40;;;5.88;;
61391;SDS011;47261;52.892;5.738;2024-02-15T03:49:03;21.20;;;6.13;;
61391;SDS011;47261;52.892;5.738;2024-02-15T03:51:28;23.90;;;6.70;;
61391;SDS011;47261;52.892;5.738;2024-02-15T03:53:54;15.97;;;6.53;;
61391;SDS011;47261;52.892;5.738;2024-02-15T03:56:19;22.83;;;8.33;;
61391;SDS011;47261;52.892;5.738;2024-02-15T03:58:48;17.85;;;5.93;;
61391;SDS011;47261;52.892;5.738;2024-02-15T04:01:15;15.60;;;5.63;;
61391;SDS011;47261;52.892;5.738;2024-02-15T04:03:41;21.70;;;7.47;;
61391;SDS011;47261;52.892;5.738;2024-02-15T04:06:07;20.60;;;6.17;;
61391;SDS011;47261;52.892;5.738;2024-02-15T04:08:34;24.65;;;7.82;;
61391;SDS011;47261;52.892;5.738;2024-02-15T04:11:04;16.02;;;6.32;;
61391;SDS011;47261;52.892;5.738;2024-02-15T04:13:31;21.85;;;7.63;;
61391;SDS011;47261;52.892;5.738;2024-02-15T04:15:57;20.87;;;6.33;;
61391;SDS011;47261;52.892;5.738;2024-02-15T04:18:23;15.98;;;6.25;;
61391;SDS011;47261;52.892;5.738;2024-02-15T04:20:48;17.15;;;6.32;;
61391;SDS011;47261;52.892;5.738;2024-02-15T04:23:14;16.03;;;5.70;;
61391;SDS011;47261;52.892;5.738;2024-02-15T04:25:40;17.73;;;6.63;;
61391;SDS011;47261;52.892;5.738;2024-02-15T04:28:06;17.85;;;6.18;;
61391;SDS011;47261;52.892;5.738;2024-02-15T04:30:33;14.00;;;6.13;;
61391;SDS011;47261;52.892;5.738;2024-02-15T04:33:00;14.68;;;5.30;;
61391;SDS011;47261;52.892;5.738;2024-02-15T04:35:25;13.63;;;5.47;;
61391;SDS011;47261;52.892;5.738;2024-02-15T04:37:52;22.20;;;6.82;;
61391;SDS011;47261;52.892;5.738;2024-02-15T04:40:18;19.00;;;6.10;;
61391;SDS011;47261;52.892;5.738;2024-02-15T04:42:44;8.63;;;4.07;;
61391;SDS011;47261;52.892;5.738;2024-02-15T04:45:12;21.73;;;7.88;;
61391;SDS011;47261;52.892;5.738;2024-02-15T04:47:40;26.42;;;8.90;;
61391;SDS011;47261;52.892;5.738;2024-02-15T04:50:10;19.92;;;7.35;;
61391;SDS011;47261;52.892;5.738;2024-02-15T04:52:36;16.37;;;6.83;;
61391;SDS011;47261;52.892;5.738;2024-02-15T04:55:02;22.77;;;7.78;;
61391;SDS011;47261;52.892;5.738;2024-02-15T04:57:30;21.00;;;6.80;;
61391;SDS011;47261;52.892;5.738;2024-02-15T04:59:55;17.47;;;6.27;;
61391;SDS011;47261;52.892;5.738;2024-02-15T05:02:21;26.67;;;7.43;;
61391;SDS011;47261;52.892;5.738;2024-02-15T05:04:49;19.00;;;5.77;;
61391;SDS011;47261;52.892;5.738;2024-02-15T05:07:20;16.52;;;6.75;;
61391;SDS011;47261;52.892;5.738;2024-02-15T05:09:47;10.50;;;4.35;;
61391;SDS011;47261;52.892;5.738;2024-02-15T05:12:21;20.10;;;7.03;;
61391;SDS011;47261;52.892;5.738;2024-02-15T05:14:49;18.25;;;6.95;;
61391;SDS011;47261;52.892;5.738;2024-02-15T05:17:16;20.60;;;7.20;;
61391;SDS011;47261;52.892;5.738;2024-02-15T05:19:42;25.08;;;8.32;;
61391;SDS011;47261;52.892;5.738;2024-02-15T05:22:07;17.38;;;7.07;;
61391;SDS011;47261;52.892;5.738;2024-02-15T05:24:33;18.77;;;7.20;;
61391;SDS011;47261;52.892;5.738;2024-02-15T05:26:59;28.08;;;9.45;;
61391;SDS011;47261;52.892;5.738;2024-02-15T05:29:24;22.47;;;8.47;;
61391;SDS011;47261;52.892;5.738;2024-02-15T05:31:50;18.30;;;6.70;;
61391;SDS011;47261;52.892;5.738;2024-02-15T05:34:16;27.33;;;10.17;;
61391;SDS011;47261;52.892;5.738;2024-02-15T05:36:42;14.05;;;6.78;;
61391;SDS011;47261;52.892;5.738;2024-02-15T05:39:08;13.70;;;6.33;;
61391;SDS011;47261;52.892;5.738;2024-02-15T05:41:36;16.52;;;7.70;;
61391;SDS011;47261;52.892;5.738;2024-02-15T05:44:03;26.80;;;10.20;;
61391;SDS011;47261;52.892;5.738;2024-02-15T05:46:31;26.27;;;8.73;;
61391;SDS011;47261;52.892;5.738;2024-02-15T05:48:58;10.20;;;5.17;;
61391;SDS011;47261;52.892;5.738;2024-02-15T05:51:24;23.23;;;9.38;;
61391;SDS011;47261;52.892;5.738;2024-02-15T05:53:50;23.88;;;8.73;;
61391;SDS011;47261;52.892;5.738;2024-02-15T05:56:15;24.60;;;8.93;;
61391;SDS011;47261;52.892;5.738;2024-02-15T05:58:41;26.23;;;9.95;;
61391;SDS011;47261;52.892;5.738;2024-02-15T06:01:07;22.33;;;9.03;;
61391;SDS011;47261;52.892;5.738;2024-02-15T06:03:37;27.77;;;10.30;;
61391;SDS011;47261;52.892;5.738;2024-02-15T06:06:04;21.02;;;9.90;;
61391;SDS011;47261;52.892;5.738;2024-02-15T06:08:35;26.70;;;11.85;;
61391;SDS011;47261;52.892;5.738;2024-02-15T06:11:01;19.80;;;8.97;;
61391;SDS011;47261;52.892;5.738;2024-02-15T06:13:28;20.92;;;9.80;;
61391;SDS011;47261;52.892;5.738;2024-02-15T06:15:54;23.45;;;9.93;;
61391;SDS011;47261;52.892;5.738;2024-02-15T06:18:20;21.67;;;8.53;;
61391;SDS011;47261;52.892;5.738;2024-02-15T06:20:49;27.73;;;10.40;;
61391;SDS011;47261;52.892;5.738;2024-02-15T06:23:18;31.67;;;11.02;;
61391;SDS011;47261;52.892;5.738;2024-02-15T06:25:46;31.20;;;10.80;;
61391;SDS011;47261;52.892;5.738;2024-02-15T06:28:16;29.00;;;12.53;;
61391;SDS011;47261;52.892;5.738;2024-02-15T06:31:05;28.17;;;12.15;;
61391;SDS011;47261;52.892;5.738;2024-02-15T06:33:49;27.35;;;13.48;;
61391;SDS011;47261;52.892;5.738;2024-02-15T06:36:33;28.08;;;12.00;;
61391;SDS011;47261;52.892;5.738;2024-02-15T06:39:17;25.33;;;10.57;;
61391;SDS011;47261;52.892;5.738;2024-02-15T06:42:01;30.80;;;12.77;;
61391;SDS011;47261;52.892;5.738;2024-02-15T06:44:27;25.60;;;11.90;;
61391;SDS011;47261;52.892;5.738;2024-02-15T06:46:53;30.00;;;13.05;;
61391;SDS011;47261;52.892;5.738;2024-02-15T06:49:19;21.80;;;9.90;;
61391;SDS011;47261;52.892;5.738;2024-02-15T06:51:48;30.15;;;12.77;;
61391;SDS011;47261;52.892;5.738;2024-02-15T06:54:14;24.88;;;10.18;;
61391;SDS011;47261;52.892;5.738;2024-02-15T06:56:42;31.63;;;12.93;;
61391;SDS011;47261;52.892;5.738;2024-02-15T06:59:08;27.02;;;12.65;;
61391;SDS011;47261;52.892;5.738;2024-02-15T07:01:35;26.20;;;12.55;;
61391;SDS011;47261;52.892;5.738;2024-02-15T07:04:01;28.13;;;11.70;;
61391;SDS011;47261;52.892;5.738;2024-02-15T07:06:28;26.87;;;10.63;;
61391;SDS011;47261;52.892;5.738;2024-02-15T07:08:54;27.58;;;12.35;;
61391;SDS011;47261;52.892;5.738;2024-02-15T07:11:21;25.20;;;11.98;;
61391;SDS011;47261;52.892;5.738;2024-02-15T07:13:47;26.87;;;11.30;;
61391;SDS011;47261;52.892;5.738;2024-02-15T07:16:13;22.73;;;9.48;;
61391;SDS011;47261;52.892;5.738;2024-02-15T07:18:41;26.65;;;11.00;;
61391;SDS011;47261;52.892;5.738;2024-02-15T07:21:06;21.08;;;9.38;;
61391;SDS011;47261;52.892;5.738;2024-02-15T07:23:38;26.43;;;12.53;;
61391;SDS011;47261;52.892;5.738;2024-02-15T07:26:07;23.17;;;10.13;;
61391;SDS011;47261;52.892;5.738;2024-02-15T07:28:33;22.63;;;10.93;;
61391;SDS011;47261;52.892;5.738;2024-02-15T07:30:59;28.97;;;12.83;;
61391;SDS011;47261;52.892;5.738;2024-02-15T07:33:27;25.55;;;11.10;;
61391;SDS011;47261;52.892;5.738;2024-02-15T07:35:54;23.98;;;11.65;;
61391;SDS011;47261;52.892;5.738;2024-02-15T07:38:21;25.45;;;9.48;;
61391;SDS011;47261;52.892;5.738;2024-02-15T07:40:48;30.15;;;12.27;;
61391;SDS011;47261;52.892;5.738;2024-02-15T07:43:14;17.93;;;8.43;;
61391;SDS011;47261;52.892;5.738;2024-02-15T07:45:40;19.35;;;9.57;;
61391;SDS011;47261;52.892;5.738;2024-02-15T07:48:06;21.23;;;9.60;;
61391;SDS011;47261;52.892;5.738;2024-02-15T07:50:32;27.02;;;12.73;;
61391;SDS011;47261;52.892;5.738;2024-02-15T07:52:58;21.93;;;10.97;;
61391;SDS011;47261;52.892;5.738;2024-02-15T07:55:23;25.47;;;12.40;;
61391;SDS011;47261;52.892;5.738;2024-02-15T07:57:52;23.35;;;11.45;;
61391;SDS011;47261;52.892;5.738;2024-02-15T08:00:18;22.00;;;9.48;;
61391;SDS011;47261;52.892;5.738;2024-02-15T08:02:44;25.10;;;12.07;;
61391;SDS011;47261;52.892;5.738;2024-02-15T08:05:10;18.57;;;9.33;;
61391;SDS011;47261;52.892;5.738;2024-02-15T08:07:40;19.27;;;9.70;;
61391;SDS011;47261;52.892;5.738;2024-02-15T08:10:07;28.02;;;13.23;;
61391;SDS011;47261;52.892;5.738;2024-02-15T08:12:41;14.05;;;7.40;;
61391;SDS011;47261;52.892;5.738;2024-02-15T08:15:11;19.35;;;8.50;;
61391;SDS011;47261;52.892;5.738;2024-02-15T08:17:40;10.70;;;5.10;;
61391;SDS011;47261;52.892;5.738;2024-02-15T08:20:07;21.25;;;9.98;;
61391;SDS011;47261;52.892;5.738;2024-02-15T08:22:38;24.23;;;12.02;;
61391;SDS011;47261;52.892;5.738;2024-02-15T08:25:10;20.27;;;10.90;;
61391;SDS011;47261;52.892;5.738;2024-02-15T08:27:37;21.10;;;9.38;;
61391;SDS011;47261;52.892;5.738;2024-02-15T08:30:11;18.47;;;9.77;;
61391;SDS011;47261;52.892;5.738;2024-02-15T08:32:38;19.98;;;8.13;;
61391;SDS011;47261;52.892;5.738;2024-02-15T08:35:11;12.77;;;6.18;;
61391;SDS011;47261;52.892;5.738;2024-02-15T08:37:38;15.70;;;7.10;;
61391;SDS011;47261;52.892;5.738;2024-02-15T08:40:05;17.10;;;7.65;;
61391;SDS011;47261;52.892;5.738;2024-02-15T08:42:39;17.93;;;8.60;;
61391;SDS011;47261;52.892;5.738;2024-02-15T08:45:08;14.98;;;7.50;;
61391;SDS011;47261;52.892;5.738;2024-02-15T08:47:38;10.30;;;5.43;;
61391;SDS011;47261;52.892;5.738;2024-02-15T08:50:05;8.05;;;3.95;;
61391;SDS011;47261;52.892;5.738;2024-02-15T08:52:32;17.70;;;8.38;;
61391;SDS011;47261;52.892;5.738;2024-02-15T08:54:57;15.17;;;7.73;;
61391;SDS011;47261;52.892;5.738;2024-02-15T08:57:24;10.43;;;4.40;;
61391;SDS011;47261;52.892;5.738;2024-02-15T08:59:51;12.15;;;6.28;;
61391;SDS011;47261;52.892;5.738;2024-02-15T09:02:17;9.57;;;4.73;;
61391;SDS011;47261;52.892;5.738;2024-02-15T09:04:43;10.40;;;4.75;;
61391;SDS011;47261;52.892;5.738;2024-02-15T09:07:09;9.70;;;4.97;;
61391;SDS011;47261;52.892;5.738;2024-02-15T09:09:34;16.00;;;6.70;;
61391;SDS011;47261;52.892;5.738;2024-02-15T09:12:04;14.57;;;6.85;;
61391;SDS011;47261;52.892;5.738;2024-02-15T09:14:34;11.63;;;5.72;;
61391;SDS011;47261;52.892;5.738;2024-02-15T09:17:01;9.53;;;4.83;;
61391;SDS011;47261;52.892;5.738;2024-02-15T09:19:35;9.68;;;4.70;;
61391;SDS011;47261;52.892;5.738;2024-02-15T09:22:02;8.85;;;3.72;;
61391;SDS011;47261;52.892;5.738;2024-02-15T09:24:31;9.32;;;3.55;;
61391;SDS011;47261;52.892;5.738;2024-02-15T09:26:59;8.27;;;3.78;;
61391;SDS011;47261;52.892;5.738;2024-02-15T09:29:26;5.63;;;2.67;;
61391;SDS011;47261;52.892;5.738;2024-02-15T09:31:57;8.07;;;2.88;;
61391;SDS011;47261;52.892;5.738;2024-02-15T09:34:23;5.50;;;2.22;;
61391;SDS011;47261;52.892;5.738;2024-02-15T09:36:49;4.60;;;2.08;;
61391;SDS011;47261;52.892;5.738;2024-02-15T09:39:15;7.17;;;2.60;;
61391;SDS011;47261;52.892;5.738;2024-02-15T09:41:42;5.93;;;2.67;;
61391;SDS011;47261;52.892;5.738;2024-02-15T09:44:08;5.40;;;2.60;;
61391;SDS011;47261;52.892;5.738;2024-02-15T09:46:35;9.60;;;3.00;;
61391;SDS011;47261;52.892;5.738;2024-02-15T09:49:07;7.25;;;3.20;;
61391;SDS011;47261;52.892;5.738;2024-02-15T09:51:33;4.83;;;2.03;;
61391;SDS011;47261;52.892;5.738;2024-02-15T09:53:59;5.97;;;2.80;;
61391;SDS011;47261;52.892;5.738;2024-02-15T09:56:26;4.30;;;1.38;;
61391;SDS011;47261;52.892;5.738;2024-02-15T09:58:55;7.30;;;2.42;;
61391;SDS011;47261;52.892;5.738;2024-02-15T10:01:22;4.45;;;1.65;;
61391;SDS011;47261;52.892;5.738;2024-02-15T10:03:50;5.90;;;2.60;;
61391;SDS011;47261;52.892;5.738;2024-02-15T10:06:16;9.00;;;3.80;;
61391;SDS011;47261;52.892;5.738;2024-02-15T10:08:43;7.07;;;3.22;;
61391;SDS011;47261;52.892;5.738;2024-02-15T10:11:09;6.10;;;2.60;;
61391;SDS011;47261;52.892;5.738;2024-02-15T10:13:35;3.90;;;1.73;;
61391;SDS011;47261;52.892;5.738;2024-02-15T10:16:17;3.07;;;1.37;;
61391;SDS011;47261;52.892;5.738;2024-02-15T10:18:45;4.22;;;1.65;;
61391;SDS011;47261;52.892;5.738;2024-02-15T10:21:33;7.22;;;2.70;;
61391;SDS011;47261;52.892;5.738;2024-02-15T10:24:06;3.97;;;1.55;;
61391;SDS011;47261;52.892;5.738;2024-02-15T10:26:34;5.05;;;1.95;;
61391;SDS011;47261;52.892;5.738;2024-02-15T10:29:10;5.83;;;2.60;;
61391;SDS011;47261;52.892;5.738;2024-02-15T10:31:39;5.15;;;2.30;;
61391;SDS011;47261;52.892;5.738;2024-02-15T10:34:17;5.55;;;2.17;;
61391;SDS011;47261;52.892;5.738;2024-02-15T10:36:44;8.50;;;3.22;;
61391;SDS011;47261;52.892;5.738;2024-02-15T10:39:11;7.10;;;2.97;;
61391;SDS011;47261;52.892;5.738;2024-02-15T10:41:41;8.73;;;4.17;;
61391;SDS011;47261;52.892;5.738;2024-02-15T10:44:15;4.85;;;1.80;;
61391;SDS011;47261;52.892;5.738;2024-02-15T10:46:43;4.47;;;1.60;;
61391;SDS011;47261;52.892;5.738;2024-02-15T10:49:11;6.72;;;2.25;;
61391;SDS011;47261;52.892;5.738;2024-02-15T10:51:36;6.60;;;2.10;;
61391;SDS011;47261;52.892;5.738;2024-02-15T10:54:08;9.18;;;3.45;;
61391;SDS011;47261;52.892;5.738;2024-02-15T10:56:41;11.13;;;4.22;;
61391;SDS011;47261;52.892;5.738;2024-02-15T11:01:45;10.98;;;4.53;;
61391;SDS011;47261;52.892;5.738;2024-02-15T11:04:15;8.47;;;3.43;;
61391;SDS011;47261;52.892;5.738;2024-02-15T11:06:50;18.88;;;5.30;;
61391;SDS011;47261;52.892;5.738;2024-02-15T11:09:17;17.98;;;6.60;;
61391;SDS011;47261;52.892;5.738;2024-02-15T11:11:44;21.40;;;7.28;;
61391;SDS011;47261;52.892;5.738;2024-02-15T11:14:27;20.95;;;6.53;;
61391;SDS011;47261;52.892;5.738;2024-02-15T11:17:00;12.03;;;3.43;;
61391;SDS011;47261;52.892;5.738;2024-02-15T11:22:08;16.48;;;7.10;;
61391;SDS011;47261;52.892;5.738;2024-02-15T11:24:36;17.35;;;6.70;;
61391;SDS011;47261;52.892;5.738;2024-02-15T11:27:05;18.45;;;7.65;;
61391;SDS011;47261;52.892;5.738;2024-02-15T11:35:07;19.38;;;7.25;;
61391;SDS011;47261;52.892;5.738;2024-02-15T11:41:06;14.75;;;6.25;;
61391;SDS011;47261;52.892;5.738;2024-02-15T11:46:20;27.00;;;11.13;;
61391;SDS011;47261;52.892;5.738;2024-02-15T11:48:47;20.35;;;8.27;;
61391;SDS011;47261;52.892;5.738;2024-02-15T11:51:26;24.38;;;9.43;;
61391;SDS011;47261;52.892;5.738;2024-02-15T11:54:02;23.20;;;10.10;;
61391;SDS011;47261;52.892;5.738;2024-02-15T11:56:32;22.80;;;9.17;;
61391;SDS011;47261;52.892;5.738;2024-02-15T11:59:15;25.27;;;9.85;;
61391;SDS011;47261;52.892;5.738;2024-02-15T12:01:54;31.20;;;11.77;;
61391;SDS011;47261;52.892;5.738;2024-02-15T12:04:42;25.60;;;9.10;;
61391;SDS011;47261;52.892;5.738;2024-02-15T12:07:27;18.05;;;7.38;;
61391;SDS011;47261;52.892;5.738;2024-02-15T12:10:15;15.43;;;6.03;;
61391;SDS011;47261;52.892;5.738;2024-02-15T12:13:01;27.40;;;10.48;;
61391;SDS011;47261;52.892;5.738;2024-02-15T12:16:00;23.15;;;9.13;;
61391;SDS011;47261;52.892;5.738;2024-02-15T12:18:44;27.30;;;9.68;;
61391;SDS011;47261;52.892;5.738;2024-02-15T12:21:18;24.55;;;8.82;;
61391;SDS011;47261;52.892;5.738;2024-02-15T12:23:48;20.93;;;7.70;;
61391;SDS011;47261;52.892;5.738;2024-02-15T12:26:18;18.80;;;8.55;;
61391;SDS011;47261;52.892;5.738;2024-02-15T12:28:49;28.58;;;11.98;;
61391;SDS011;47261;52.892;5.738;2024-02-15T12:31:20;24.17;;;10.02;;
61391;SDS011;47261;52.892;5.738;2024-02-15T12:33:46;18.65;;;7.82;;
61391;SDS011;47261;52.892;5.738;2024-02-15T12:36:13;20.70;;;8.83;;
61391;SDS011;47261;52.892;5.738;2024-02-15T12:38:40;24.50;;;9.93;;
61391;SDS011;47261;52.892;5.738;2024-02-15T12:41:18;19.25;;;7.53;;
61391;SDS011;47261;52.892;5.738;2024-02-15T12:43:45;19.33;;;8.63;;
61391;SDS011;47261;52.892;5.738;2024-02-15T12:46:10;19.03;;;9.33;;
61391;SDS011;47261;52.892;5.738;2024-02-15T12:48:37;27.13;;;9.57;;
61391;SDS011;47261;52.892;5.738;2024-02-15T12:51:15;27.67;;;11.35;;
61391;SDS011;47261;52.892;5.738;2024-02-15T12:53:41;22.58;;;7.82;;
61391;SDS011;47261;52.892;5.738;2024-02-15T12:56:07;22.35;;;9.30;;
61391;SDS011;47261;52.892;5.738;2024-02-15T12:58:34;29.37;;;9.77;;
61391;SDS011;47261;52.892;5.738;2024-02-15T13:01:00;34.60;;;13.05;;
61391;SDS011;47261;52.892;5.738;2024-02-15T13:03:26;20.90;;;9.13;;
61391;SDS011;47261;52.892;5.738;2024-02-15T13:05:52;25.67;;;10.75;;
61391;SDS011;47261;52.892;5.738;2024-02-15T13:08:18;23.23;;;9.90;;
61391;SDS011;47261;52.892;5.738;2024-02-15T13:10:45;24.90;;;9.15;;
61391;SDS011;47261;52.892;5.738;2024-02-15T13:13:11;28.83;;;11.18;;
61391;SDS011;47261;52.892;5.738;2024-02-15T13:15:41;20.07;;;10.37;;
61391;SDS011;47261;52.892;5.738;2024-02-15T13:18:07;21.95;;;9.80;;
61391;SDS011;47261;52.892;5.738;2024-02-15T13:20:36;22.08;;;10.73;;
61391;SDS011;47261;52.892;5.738;2024-02-15T13:23:06;23.55;;;8.02;;
61391;SDS011;47261;52.892;5.738;2024-02-15T13:25:34;24.08;;;11.07;;
61391;SDS011;47261;52.892;5.738;2024-02-15T13:28:01;21.67;;;9.77;;
61391;SDS011;47261;52.892;5.738;2024-02-15T13:30:29;16.65;;;7.05;;
61391;SDS011;47261;52.892;5.738;2024-02-15T13:32:55;21.27;;;8.88;;
61391;SDS011;47261;52.892;5.738;2024-02-15T13:35:21;18.15;;;8.70;;
61391;SDS011;47261;52.892;5.738;2024-02-15T13:40:15;12.03;;;5.57;;
61391;SDS011;47261;52.892;5.738;2024-02-15T13:42:44;22.45;;;7.88;;
61391;SDS011;47261;52.892;5.738;2024-02-15T13:48:04;18.60;;;8.05;;
61391;SDS011;47261;52.892;5.738;2024-02-15T13:50:32;23.83;;;8.27;;
61391;SDS011;47261;52.892;5.738;2024-02-15T13:52:57;15.70;;;8.23;;
61391;SDS011;47261;52.892;5.738;2024-02-15T13:55:23;15.75;;;6.78;;
61391;SDS011;47261;52.892;5.738;2024-02-15T13:57:52;26.05;;;9.32;;
61391;SDS011;47261;52.892;5.738;2024-02-15T14:00:21;21.53;;;8.67;;
61391;SDS011;47261;52.892;5.738;2024-02-15T14:05:18;23.38;;;9.77;;
61391;SDS011;47261;52.892;5.738;2024-02-15T14:07:48;19.25;;;9.13;;
61391;SDS011;47261;52.892;5.738;2024-02-15T14:10:14;16.95;;;7.25;;
61391;SDS011;47261;52.892;5.738;2024-02-15T14:12:43;13.57;;;5.70;;
61391;SDS011;47261;52.892;5.738;2024-02-15T14:15:10;22.25;;;8.68;;
61391;SDS011;47261;52.892;5.738;2024-02-15T14:17:37;19.27;;;7.93;;
61391;SDS011;47261;52.892;5.738;2024-02-15T14:20:02;22.02;;;8.50;;
61391;SDS011;47261;52.892;5.738;2024-02-15T14:22:33;19.23;;;6.55;;
61391;SDS011;47261;52.892;5.738;2024-02-15T14:25:00;20.37;;;7.97;;
61391;SDS011;47261;52.892;5.738;2024-02-15T14:27:26;24.30;;;8.52;;
61391;SDS011;47261;52.892;5.738;2024-02-15T14:29:52;24.90;;;8.45;;
61391;SDS011;47261;52.892;5.738;2024-02-15T14:32:35;24.85;;;8.18;;
61391;SDS011;47261;52.892;5.738;2024-02-15T14:35:20;21.97;;;8.50;;
61391;SDS011;47261;52.892;5.738;2024-02-15T14:37:46;20.10;;;7.45;;
61391;SDS011;47261;52.892;5.738;2024-02-15T14:40:12;21.70;;;9.07;;
61391;SDS011;47261;52.892;5.738;2024-02-15T14:42:41;23.87;;;8.77;;
61391;SDS011;47261;52.892;5.738;2024-02-15T14:45:08;20.42;;;8.10;;
61391;SDS011;47261;52.892;5.738;2024-02-15T14:47:34;18.50;;;8.70;;
61391;SDS011;47261;52.892;5.738;2024-02-15T14:50:00;23.73;;;8.93;;
61391;SDS011;47261;52.892;5.738;2024-02-15T14:52:25;21.05;;;9.43;;
61391;SDS011;47261;52.892;5.738;2024-02-15T14:54:51;20.60;;;10.17;;
61391;SDS011;47261;52.892;5.738;2024-02-15T14:57:17;19.90;;;9.02;;
61391;SDS011;47261;52.892;5.738;2024-02-15T14:59:42;17.93;;;8.90;;
61391;SDS011;47261;52.892;5.738;2024-02-15T15:02:08;24.10;;;9.95;;
61391;SDS011;47261;52.892;5.738;2024-02-15T15:04:34;23.63;;;8.93;;